sensor_id;sensor_type;location;lat;lon;timestamp;P1;durP1;ratioP1;P2;durP2;ratioP2
6376;SDS011;3221;48.858;10.128;2022-11-18T00:01:13;0.50;;;0.50;;
6376;SDS011;3221;48.858;10.128;2022-11-18T00:03:45;0.60;;;0.60;;
6376;SDS011;3221;48.858;10.128;2022-11-18T00:06:14;0.50;;;0.50;;
6376;SDS011;3221;48.858;10.128;2022-11-18T00:08:45;0.40;;;0.40;;
6376;SDS011;3221;48.858;10.128;2022-11-18T00:11:14;0.50;;;0.50;;
6376;SDS011;3221;48.858;10.128;2022-11-18T00:14:01;1.07;;;0.43;;
6376;SDS011;3221;48.858;10.128;2022-11-18T00:16:54;0.50;;;0.50;;
6376;SDS011;3221;48.858;10.128;2022-11-18T00:19:29;3.00;;;0.50;;
6376;SDS011;3221;48.858;10.128;2022-11-18T00:21:56;0.50;;;0.50;;
6376;SDS011;3221;48.858;10.128;2022-11-18T00:24:23;0.40;;;0.40;;
6376;SDS011;3221;48.858;10.128;2022-11-18T00:26:51;0.50;;;0.50;;
6376;SDS011;3221;48.858;10.128;2022-11-18T00:29:19;0.50;;;0.50;;
6376;SDS011;3221;48.858;10.128;2022-11-18T00:31:47;0.40;;;0.40;;
6376;SDS011;3221;48.858;10.128;2022-11-18T00:34:15;0.50;;;0.50;;
6376;SDS011;3221;48.858;10.128;2022-11-18T00:36:43;0.40;;;0.40;;
6376;SDS011;3221;48.858;10.128;2022-11-18T00:39:11;0.40;;;0.40;;
6376;SDS011;3221;48.858;10.128;2022-11-18T00:41:40;0.50;;;0.50;;
6376;SDS011;3221;48.858;10.128;2022-11-18T00:44:26;0.40;;;0.40;;
6376;SDS011;3221;48.858;10.128;2022-11-18T00:46:53;1.53;;;0.43;;
6376;SDS011;3221;48.858;10.128;2022-11-18T00:49:20;0.30;;;0.30;;
6376;SDS011;3221;48.858;10.128;2022-11-18T00:51:47;0.40;;;0.40;;
6376;SDS011;3221;48.858;10.128;2022-11-18T00:54:14;0.50;;;0.50;;
6376;SDS011;3221;48.858;10.128;2022-11-18T00:56:41;0.53;;;0.53;;
6376;SDS011;3221;48.858;10.128;2022-11-18T00:59:08;0.50;;;0.50;;
6376;SDS011;3221;48.858;10.128;2022-11-18T01:01:35;0.77;;;0.60;;
6376;SDS011;3221;48.858;10.128;2022-11-18T01:04:02;0.50;;;0.50;;
6376;SDS011;3221;48.858;10.128;2022-11-18T01:06:29;0.60;;;0.40;;
6376;SDS011;3221;48.858;10.128;2022-11-18T01:08:56;0.47;;;0.47;;
6376;SDS011;3221;48.858;10.128;2022-11-18T01:11:23;0.63;;;0.60;;
6376;SDS011;3221;48.858;10.128;2022-11-18T01:14:08;0.67;;;0.50;;
6376;SDS011;3221;48.858;10.128;2022-11-18T01:16:35;0.50;;;0.50;;
6376;SDS011;3221;48.858;10.128;2022-11-18T01:19:02;0.40;;;0.40;;
6376;SDS011;3221;48.858;10.128;2022-11-18T01:21:29;0.60;;;0.60;;
6376;SDS011;3221;48.858;10.128;2022-11-18T01:23:56;0.50;;;0.50;;
6376;SDS011;3221;48.858;10.128;2022-11-18T01:26:23;0.40;;;0.40;;
6376;SDS011;3221;48.858;10.128;2022-11-18T01:28:53;0.83;;;0.50;;
6376;SDS011;3221;48.858;10.128;2022-11-18T01:31:21;0.50;;;0.50;;
6376;SDS011;3221;48.858;10.128;2022-11-18T01:33:48;0.50;;;0.50;;
6376;SDS011;3221;48.858;10.128;2022-11-18T01:36:22;0.40;;;0.40;;
6376;SDS011;3221;48.858;10.128;2022-11-18T01:38:51;0.70;;;0.40;;
6376;SDS011;3221;48.858;10.128;2022-11-18T01:41:18;0.87;;;0.60;;
6376;SDS011;3221;48.858;10.128;2022-11-18T01:43:54;0.37;;;0.37;;
6376;SDS011;3221;48.858;10.128;2022-11-18T01:46:27;0.40;;;0.40;;
6376;SDS011;3221;48.858;10.128;2022-11-18T01:48:58;0.40;;;0.40;;
6376;SDS011;3221;48.858;10.128;2022-11-18T01:51:41;0.53;;;0.40;;
6376;SDS011;3221;48.858;10.128;2022-11-18T01:54:13;0.50;;;0.50;;
6376;SDS011;3221;48.858;10.128;2022-11-18T01:56:46;0.40;;;0.40;;
6376;SDS011;3221;48.858;10.128;2022-11-18T01:59:18;0.50;;;0.40;;
6376;SDS011;3221;48.858;10.128;2022-11-18T02:01:49;0.60;;;0.60;;
6376;SDS011;3221;48.858;10.128;2022-11-18T02:04:22;0.60;;;0.57;;
6376;SDS011;3221;48.858;10.128;2022-11-18T02:06:50;0.50;;;0.50;;
6376;SDS011;3221;48.858;10.128;2022-11-18T02:09:18;0.50;;;0.50;;
6376;SDS011;3221;48.858;10.128;2022-11-18T02:11:46;0.40;;;0.40;;
6376;SDS011;3221;48.858;10.128;2022-11-18T02:14:17;0.40;;;0.40;;
6376;SDS011;3221;48.858;10.128;2022-11-18T02:17:26;0.50;;;0.50;;
6376;SDS011;3221;48.858;10.128;2022-11-18T02:22:46;0.43;;;0.43;;
6376;SDS011;3221;48.858;10.128;2022-11-18T02:37:01;0.60;;;0.60;;
6376;SDS011;3221;48.858;10.128;2022-11-18T02:39:45;0.80;;;0.80;;
6376;SDS011;3221;48.858;10.128;2022-11-18T02:42:16;0.87;;;0.80;;
6376;SDS011;3221;48.858;10.128;2022-11-18T02:44:46;2.53;;;1.20;;
6376;SDS011;3221;48.858;10.128;2022-11-18T02:47:17;0.87;;;0.80;;
6376;SDS011;3221;48.858;10.128;2022-11-18T02:49:47;1.90;;;1.03;;
6376;SDS011;3221;48.858;10.128;2022-11-18T02:52:19;1.20;;;1.10;;
6376;SDS011;3221;48.858;10.128;2022-11-18T02:54:48;0.87;;;0.87;;
6376;SDS011;3221;48.858;10.128;2022-11-18T02:57:17;1.20;;;1.10;;
6376;SDS011;3221;48.858;10.128;2022-11-18T02:59:46;1.30;;;1.13;;
6376;SDS011;3221;48.858;10.128;2022-11-18T03:02:17;1.53;;;1.43;;
6376;SDS011;3221;48.858;10.128;2022-11-18T03:04:45;1.43;;;1.30;;
6376;SDS011;3221;48.858;10.128;2022-11-18T03:07:20;2.37;;;1.43;;
6376;SDS011;3221;48.858;10.128;2022-11-18T03:09:53;3.03;;;2.20;;
6376;SDS011;3221;48.858;10.128;2022-11-18T03:20:51;1.30;;;1.20;;
6376;SDS011;3221;48.858;10.128;2022-11-18T03:23:28;1.73;;;1.33;;
6376;SDS011;3221;48.858;10.128;2022-11-18T03:26:02;1.40;;;1.30;;
6376;SDS011;3221;48.858;10.128;2022-11-18T03:31:28;1.23;;;1.00;;
6376;SDS011;3221;48.858;10.128;2022-11-18T03:33:59;1.20;;;1.10;;
6376;SDS011;3221;48.858;10.128;2022-11-18T03:36:31;1.30;;;1.20;;
6376;SDS011;3221;48.858;10.128;2022-11-18T03:39:02;1.90;;;1.40;;
6376;SDS011;3221;48.858;10.128;2022-11-18T03:41:33;1.20;;;1.10;;
6376;SDS011;3221;48.858;10.128;2022-11-18T03:44:05;2.57;;;1.33;;
6376;SDS011;3221;48.858;10.128;2022-11-18T03:46:46;1.63;;;1.40;;
6376;SDS011;3221;48.858;10.128;2022-11-18T03:49:20;2.43;;;1.53;;
6376;SDS011;3221;48.858;10.128;2022-11-18T03:51:57;1.63;;;1.40;;
6376;SDS011;3221;48.858;10.128;2022-11-18T03:54:32;1.83;;;1.23;;
6376;SDS011;3221;48.858;10.128;2022-11-18T04:00:19;1.53;;;1.20;;
6376;SDS011;3221;48.858;10.128;2022-11-18T04:02:48;1.50;;;1.40;;
6376;SDS011;3221;48.858;10.128;2022-11-18T04:05:16;2.00;;;1.57;;
6376;SDS011;3221;48.858;10.128;2022-11-18T04:07:49;1.10;;;1.10;;
6376;SDS011;3221;48.858;10.128;2022-11-18T04:10:17;1.30;;;1.20;;
6376;SDS011;3221;48.858;10.128;2022-11-18T04:12:48;1.60;;;1.30;;
6376;SDS011;3221;48.858;10.128;2022-11-18T04:15:31;1.50;;;1.40;;
6376;SDS011;3221;48.858;10.128;2022-11-18T04:18:01;1.20;;;1.20;;
6376;SDS011;3221;48.858;10.128;2022-11-18T04:20:28;1.50;;;1.40;;
6376;SDS011;3221;48.858;10.128;2022-11-18T04:22:57;1.77;;;1.47;;
6376;SDS011;3221;48.858;10.128;2022-11-18T04:25:23;2.43;;;1.40;;
6376;SDS011;3221;48.858;10.128;2022-11-18T04:27:51;1.80;;;1.70;;
6376;SDS011;3221;48.858;10.128;2022-11-18T04:30:18;2.30;;;2.10;;
6376;SDS011;3221;48.858;10.128;2022-11-18T04:32:45;2.33;;;2.10;;
6376;SDS011;3221;48.858;10.128;2022-11-18T04:35:12;2.00;;;1.70;;
6376;SDS011;3221;48.858;10.128;2022-11-18T04:37:40;2.00;;;1.90;;
6376;SDS011;3221;48.858;10.128;2022-11-18T04:40:07;2.20;;;2.07;;
6376;SDS011;3221;48.858;10.128;2022-11-18T04:42:35;1.90;;;1.80;;
6376;SDS011;3221;48.858;10.128;2022-11-18T04:45:02;2.03;;;1.60;;
6376;SDS011;3221;48.858;10.128;2022-11-18T04:47:30;2.30;;;2.03;;
6376;SDS011;3221;48.858;10.128;2022-11-18T04:49:56;2.73;;;1.80;;
6376;SDS011;3221;48.858;10.128;2022-11-18T04:52:23;1.43;;;1.33;;
6376;SDS011;3221;48.858;10.128;2022-11-18T04:54:50;1.63;;;1.30;;
6376;SDS011;3221;48.858;10.128;2022-11-18T04:57:18;1.40;;;1.30;;
6376;SDS011;3221;48.858;10.128;2022-11-18T04:59:45;1.30;;;1.20;;
6376;SDS011;3221;48.858;10.128;2022-11-18T05:02:12;1.10;;;1.10;;
6376;SDS011;3221;48.858;10.128;2022-11-18T05:04:39;0.97;;;0.97;;
6376;SDS011;3221;48.858;10.128;2022-11-18T05:07:06;0.83;;;0.83;;
6376;SDS011;3221;48.858;10.128;2022-11-18T05:09:33;1.23;;;1.13;;
6376;SDS011;3221;48.858;10.128;2022-11-18T05:12:00;0.80;;;0.80;;
6376;SDS011;3221;48.858;10.128;2022-11-18T05:14:46;0.93;;;0.80;;
6376;SDS011;3221;48.858;10.128;2022-11-18T05:17:16;0.70;;;0.70;;
6376;SDS011;3221;48.858;10.128;2022-11-18T05:19:43;1.13;;;0.80;;
6376;SDS011;3221;48.858;10.128;2022-11-18T05:22:10;1.33;;;0.97;;
6376;SDS011;3221;48.858;10.128;2022-11-18T05:24:37;0.73;;;0.73;;
6376;SDS011;3221;48.858;10.128;2022-11-18T05:27:03;1.40;;;1.07;;
6376;SDS011;3221;48.858;10.128;2022-11-18T05:29:30;1.27;;;1.03;;
6376;SDS011;3221;48.858;10.128;2022-11-18T05:31:58;1.93;;;1.63;;
6376;SDS011;3221;48.858;10.128;2022-11-18T05:34:25;1.57;;;1.00;;
6376;SDS011;3221;48.858;10.128;2022-11-18T05:36:52;1.67;;;1.20;;
6376;SDS011;3221;48.858;10.128;2022-11-18T05:39:19;1.13;;;1.03;;
6376;SDS011;3221;48.858;10.128;2022-11-18T05:41:46;2.10;;;1.57;;
6376;SDS011;3221;48.858;10.128;2022-11-18T05:44:32;6.37;;;3.87;;
6376;SDS011;3221;48.858;10.128;2022-11-18T05:46:59;5.70;;;4.17;;
6376;SDS011;3221;48.858;10.128;2022-11-18T05:49:25;5.17;;;2.60;;
6376;SDS011;3221;48.858;10.128;2022-11-18T05:51:52;2.10;;;1.60;;
6376;SDS011;3221;48.858;10.128;2022-11-18T05:54:19;1.10;;;1.00;;
6376;SDS011;3221;48.858;10.128;2022-11-18T05:56:47;1.33;;;0.90;;
6376;SDS011;3221;48.858;10.128;2022-11-18T05:59:14;1.37;;;1.10;;
6376;SDS011;3221;48.858;10.128;2022-11-18T06:01:43;0.90;;;0.90;;
6376;SDS011;3221;48.858;10.128;2022-11-18T06:07:17;1.93;;;1.80;;
6376;SDS011;3221;48.858;10.128;2022-11-18T06:09:47;3.70;;;2.30;;
6376;SDS011;3221;48.858;10.128;2022-11-18T06:12:18;1.57;;;1.47;;
6376;SDS011;3221;48.858;10.128;2022-11-18T06:14:52;1.63;;;1.10;;
6376;SDS011;3221;48.858;10.128;2022-11-18T06:17:26;1.17;;;1.00;;
6376;SDS011;3221;48.858;10.128;2022-11-18T06:19:58;2.03;;;1.83;;
6376;SDS011;3221;48.858;10.128;2022-11-18T06:22:25;2.07;;;1.97;;
6376;SDS011;3221;48.858;10.128;2022-11-18T06:24:52;1.50;;;1.40;;
6376;SDS011;3221;48.858;10.128;2022-11-18T06:27:19;2.00;;;1.20;;
6376;SDS011;3221;48.858;10.128;2022-11-18T06:29:46;1.20;;;1.10;;
6376;SDS011;3221;48.858;10.128;2022-11-18T06:32:13;1.40;;;1.30;;
6376;SDS011;3221;48.858;10.128;2022-11-18T06:34:40;1.83;;;1.60;;
6376;SDS011;3221;48.858;10.128;2022-11-18T06:37:14;2.40;;;1.70;;
6376;SDS011;3221;48.858;10.128;2022-11-18T06:39:42;1.63;;;1.53;;
6376;SDS011;3221;48.858;10.128;2022-11-18T06:42:09;1.40;;;1.30;;
6376;SDS011;3221;48.858;10.128;2022-11-18T06:44:36;1.40;;;1.30;;
6376;SDS011;3221;48.858;10.128;2022-11-18T06:47:03;1.37;;;1.27;;
6376;SDS011;3221;48.858;10.128;2022-11-18T06:49:30;1.03;;;1.03;;
6376;SDS011;3221;48.858;10.128;2022-11-18T06:51:57;1.10;;;1.10;;
6376;SDS011;3221;48.858;10.128;2022-11-18T06:54:24;1.10;;;1.10;;
6376;SDS011;3221;48.858;10.128;2022-11-18T06:56:51;1.23;;;1.10;;
6376;SDS011;3221;48.858;10.128;2022-11-18T06:59:18;1.27;;;1.10;;
6376;SDS011;3221;48.858;10.128;2022-11-18T07:01:49;2.13;;;1.17;;
6376;SDS011;3221;48.858;10.128;2022-11-18T07:04:18;1.00;;;1.00;;
6376;SDS011;3221;48.858;10.128;2022-11-18T07:06:45;0.70;;;0.70;;
6376;SDS011;3221;48.858;10.128;2022-11-18T07:09:13;0.70;;;0.70;;
6376;SDS011;3221;48.858;10.128;2022-11-18T07:11:40;1.07;;;0.93;;
6376;SDS011;3221;48.858;10.128;2022-11-18T07:14:07;1.30;;;1.20;;
6376;SDS011;3221;48.858;10.128;2022-11-18T07:16:35;1.37;;;1.23;;
6376;SDS011;3221;48.858;10.128;2022-11-18T07:19:06;2.20;;;1.83;;
6376;SDS011;3221;48.858;10.128;2022-11-18T07:21:35;1.97;;;1.50;;
6376;SDS011;3221;48.858;10.128;2022-11-18T07:24:04;2.00;;;1.70;;
6376;SDS011;3221;48.858;10.128;2022-11-18T07:26:32;2.30;;;1.93;;
6376;SDS011;3221;48.858;10.128;2022-11-18T07:29:00;4.43;;;2.27;;
6376;SDS011;3221;48.858;10.128;2022-11-18T07:31:27;3.33;;;2.37;;
6376;SDS011;3221;48.858;10.128;2022-11-18T07:33:55;2.03;;;1.60;;
6376;SDS011;3221;48.858;10.128;2022-11-18T07:36:23;2.67;;;1.60;;
6376;SDS011;3221;48.858;10.128;2022-11-18T07:38:59;2.53;;;2.07;;
6376;SDS011;3221;48.858;10.128;2022-11-18T07:41:28;3.30;;;2.10;;
6376;SDS011;3221;48.858;10.128;2022-11-18T07:43:56;3.20;;;1.67;;
6376;SDS011;3221;48.858;10.128;2022-11-18T07:46:28;1.70;;;1.60;;
6376;SDS011;3221;48.858;10.128;2022-11-18T07:48:57;1.90;;;1.70;;
6376;SDS011;3221;48.858;10.128;2022-11-18T07:51:26;2.10;;;1.80;;
6376;SDS011;3221;48.858;10.128;2022-11-18T07:53:55;3.93;;;2.10;;
6376;SDS011;3221;48.858;10.128;2022-11-18T07:56:22;2.70;;;2.20;;
6376;SDS011;3221;48.858;10.128;2022-11-18T07:58:53;3.00;;;2.10;;
6376;SDS011;3221;48.858;10.128;2022-11-18T08:01:22;3.10;;;2.40;;
6376;SDS011;3221;48.858;10.128;2022-11-18T08:03:50;3.53;;;2.40;;
6376;SDS011;3221;48.858;10.128;2022-11-18T08:06:18;3.57;;;2.70;;
6376;SDS011;3221;48.858;10.128;2022-11-18T08:08:45;3.83;;;2.33;;
6376;SDS011;3221;48.858;10.128;2022-11-18T08:11:14;2.77;;;2.33;;
6376;SDS011;3221;48.858;10.128;2022-11-18T08:13:48;3.07;;;2.03;;
6376;SDS011;3221;48.858;10.128;2022-11-18T08:16:16;2.90;;;2.27;;
6376;SDS011;3221;48.858;10.128;2022-11-18T08:18:45;4.97;;;3.00;;
6376;SDS011;3221;48.858;10.128;2022-11-18T08:21:13;2.87;;;2.57;;
6376;SDS011;3221;48.858;10.128;2022-11-18T08:23:41;3.13;;;2.00;;
6376;SDS011;3221;48.858;10.128;2022-11-18T08:26:10;2.40;;;2.07;;
6376;SDS011;3221;48.858;10.128;2022-11-18T08:28:42;2.03;;;1.73;;
6376;SDS011;3221;48.858;10.128;2022-11-18T08:33:40;2.00;;;1.83;;
6376;SDS011;3221;48.858;10.128;2022-11-18T08:36:08;2.30;;;1.43;;
6376;SDS011;3221;48.858;10.128;2022-11-18T08:38:37;1.67;;;1.27;;
6376;SDS011;3221;48.858;10.128;2022-11-18T08:41:05;1.17;;;1.07;;
6376;SDS011;3221;48.858;10.128;2022-11-18T08:43:35;1.90;;;1.40;;
6376;SDS011;3221;48.858;10.128;2022-11-18T08:46:02;1.57;;;1.40;;
6376;SDS011;3221;48.858;10.128;2022-11-18T08:48:29;1.50;;;1.40;;
6376;SDS011;3221;48.858;10.128;2022-11-18T08:50:57;1.87;;;1.50;;
6376;SDS011;3221;48.858;10.128;2022-11-18T08:53:24;1.40;;;1.30;;
6376;SDS011;3221;48.858;10.128;2022-11-18T08:55:55;1.57;;;1.40;;
6376;SDS011;3221;48.858;10.128;2022-11-18T08:58:23;4.40;;;2.77;;
6376;SDS011;3221;48.858;10.128;2022-11-18T09:00:50;3.87;;;2.73;;
6376;SDS011;3221;48.858;10.128;2022-11-18T09:03:18;2.10;;;1.60;;
6376;SDS011;3221;48.858;10.128;2022-11-18T09:05:45;1.40;;;1.20;;
6376;SDS011;3221;48.858;10.128;2022-11-18T09:08:12;1.40;;;1.30;;
6376;SDS011;3221;48.858;10.128;2022-11-18T09:10:41;1.20;;;1.10;;
6376;SDS011;3221;48.858;10.128;2022-11-18T09:13:08;1.40;;;1.30;;
6376;SDS011;3221;48.858;10.128;2022-11-18T09:15:58;1.30;;;1.20;;
6376;SDS011;3221;48.858;10.128;2022-11-18T09:18:26;1.60;;;1.23;;
6376;SDS011;3221;48.858;10.128;2022-11-18T09:20:54;1.83;;;1.30;;
6376;SDS011;3221;48.858;10.128;2022-11-18T09:23:21;2.03;;;1.63;;
6376;SDS011;3221;48.858;10.128;2022-11-18T09:25:55;2.40;;;1.50;;
6376;SDS011;3221;48.858;10.128;2022-11-18T09:28:31;1.40;;;1.30;;
6376;SDS011;3221;48.858;10.128;2022-11-18T09:30:59;1.70;;;1.53;;
6376;SDS011;3221;48.858;10.128;2022-11-18T09:33:31;1.50;;;1.40;;
6376;SDS011;3221;48.858;10.128;2022-11-18T09:35:59;1.47;;;1.23;;
6376;SDS011;3221;48.858;10.128;2022-11-18T09:38:29;1.40;;;1.30;;
6376;SDS011;3221;48.858;10.128;2022-11-18T09:46:18;1.90;;;1.73;;
6376;SDS011;3221;48.858;10.128;2022-11-18T09:49:15;1.90;;;1.70;;
6376;SDS011;3221;48.858;10.128;2022-11-18T09:52:10;1.20;;;1.10;;
6376;SDS011;3221;48.858;10.128;2022-11-18T09:54:44;2.10;;;1.40;;
6376;SDS011;3221;48.858;10.128;2022-11-18T09:57:15;0.90;;;0.90;;
6376;SDS011;3221;48.858;10.128;2022-11-18T09:59:56;1.27;;;1.17;;
6376;SDS011;3221;48.858;10.128;2022-11-18T10:05:00;1.70;;;1.40;;
6376;SDS011;3221;48.858;10.128;2022-11-18T10:07:55;1.97;;;1.50;;
6376;SDS011;3221;48.858;10.128;2022-11-18T10:24:47;1.23;;;1.13;;
6376;SDS011;3221;48.858;10.128;2022-11-18T10:27:16;1.10;;;1.10;;
6376;SDS011;3221;48.858;10.128;2022-11-18T10:29:45;1.40;;;1.10;;
6376;SDS011;3221;48.858;10.128;2022-11-18T10:32:18;1.57;;;1.47;;
6376;SDS011;3221;48.858;10.128;2022-11-18T10:34:52;1.50;;;1.40;;
6376;SDS011;3221;48.858;10.128;2022-11-18T10:37:33;3.30;;;2.30;;
6376;SDS011;3221;48.858;10.128;2022-11-18T10:40:26;2.13;;;1.93;;
6376;SDS011;3221;48.858;10.128;2022-11-18T10:42:55;2.40;;;1.80;;
6376;SDS011;3221;48.858;10.128;2022-11-18T10:45:24;1.93;;;1.60;;
6376;SDS011;3221;48.858;10.128;2022-11-18T10:48:01;2.63;;;1.70;;
6376;SDS011;3221;48.858;10.128;2022-11-18T10:50:49;1.90;;;1.63;;
6376;SDS011;3221;48.858;10.128;2022-11-18T10:56:06;1.40;;;1.30;;
6376;SDS011;3221;48.858;10.128;2022-11-18T10:58:35;1.27;;;1.17;;
6376;SDS011;3221;48.858;10.128;2022-11-18T11:01:22;1.77;;;1.30;;
6376;SDS011;3221;48.858;10.128;2022-11-18T11:04:03;1.33;;;1.23;;
6376;SDS011;3221;48.858;10.128;2022-11-18T11:06:48;1.30;;;1.20;;
6376;SDS011;3221;48.858;10.128;2022-11-18T11:09:28;1.37;;;1.27;;
6376;SDS011;3221;48.858;10.128;2022-11-18T11:11:57;1.07;;;0.97;;
6376;SDS011;3221;48.858;10.128;2022-11-18T11:14:36;1.87;;;1.17;;
6376;SDS011;3221;48.858;10.128;2022-11-18T11:17:25;1.40;;;1.30;;
6376;SDS011;3221;48.858;10.128;2022-11-18T11:20:17;1.60;;;1.50;;
6376;SDS011;3221;48.858;10.128;2022-11-18T11:22:53;2.70;;;1.80;;
6376;SDS011;3221;48.858;10.128;2022-11-18T11:25:30;2.00;;;1.80;;
6376;SDS011;3221;48.858;10.128;2022-11-18T11:28:38;3.67;;;2.27;;
6376;SDS011;3221;48.858;10.128;2022-11-18T11:31:33;3.93;;;3.57;;
6376;SDS011;3221;48.858;10.128;2022-11-18T11:34:19;3.90;;;3.50;;
6376;SDS011;3221;48.858;10.128;2022-11-18T11:41:50;4.20;;;2.80;;
6376;SDS011;3221;48.858;10.128;2022-11-18T11:50:13;2.30;;;2.10;;
6376;SDS011;3221;48.858;10.128;2022-11-18T12:05:07;2.03;;;1.80;;
6376;SDS011;3221;48.858;10.128;2022-11-18T12:07:51;1.67;;;1.57;;
6376;SDS011;3221;48.858;10.128;2022-11-18T12:16:17;1.60;;;1.50;;
6376;SDS011;3221;48.858;10.128;2022-11-18T12:19:12;1.70;;;1.60;;
6376;SDS011;3221;48.858;10.128;2022-11-18T12:26:50;1.90;;;1.80;;
6376;SDS011;3221;48.858;10.128;2022-11-18T12:31:45;2.83;;;2.60;;
6376;SDS011;3221;48.858;10.128;2022-11-18T12:34:17;2.60;;;2.40;;
6376;SDS011;3221;48.858;10.128;2022-11-18T12:36:51;2.63;;;2.20;;
6376;SDS011;3221;48.858;10.128;2022-11-18T12:42:00;2.20;;;1.90;;
6376;SDS011;3221;48.858;10.128;2022-11-18T12:44:50;2.13;;;1.93;;
6376;SDS011;3221;48.858;10.128;2022-11-18T12:50:08;2.20;;;1.87;;
6376;SDS011;3221;48.858;10.128;2022-11-18T12:55:12;2.30;;;2.10;;
6376;SDS011;3221;48.858;10.128;2022-11-18T12:57:44;1.90;;;1.80;;
6376;SDS011;3221;48.858;10.128;2022-11-18T13:00:15;2.10;;;1.90;;
6376;SDS011;3221;48.858;10.128;2022-11-18T13:02:49;2.87;;;2.00;;
6376;SDS011;3221;48.858;10.128;2022-11-18T13:05:19;1.80;;;1.70;;
6376;SDS011;3221;48.858;10.128;2022-11-18T13:07:49;1.73;;;1.63;;
6376;SDS011;3221;48.858;10.128;2022-11-18T13:13:17;3.77;;;2.50;;
6376;SDS011;3221;48.858;10.128;2022-11-18T13:15:48;3.13;;;2.17;;
6376;SDS011;3221;48.858;10.128;2022-11-18T13:18:45;2.67;;;2.00;;
6376;SDS011;3221;48.858;10.128;2022-11-18T13:21:19;2.30;;;1.80;;
6376;SDS011;3221;48.858;10.128;2022-11-18T13:24:16;2.43;;;2.03;;
6376;SDS011;3221;48.858;10.128;2022-11-18T13:26:45;2.33;;;2.10;;
6376;SDS011;3221;48.858;10.128;2022-11-18T13:29:16;2.00;;;1.90;;
6376;SDS011;3221;48.858;10.128;2022-11-18T13:34:45;1.97;;;1.87;;
6376;SDS011;3221;48.858;10.128;2022-11-18T13:37:19;2.03;;;1.83;;
6376;SDS011;3221;48.858;10.128;2022-11-18T13:39:54;2.80;;;2.50;;
6376;SDS011;3221;48.858;10.128;2022-11-18T13:42:25;2.63;;;2.10;;
6376;SDS011;3221;48.858;10.128;2022-11-18T13:44:54;2.23;;;2.07;;
6376;SDS011;3221;48.858;10.128;2022-11-18T13:47:27;2.50;;;2.20;;
6376;SDS011;3221;48.858;10.128;2022-11-18T13:52:44;2.80;;;1.90;;
6376;SDS011;3221;48.858;10.128;2022-11-18T13:55:20;1.83;;;1.73;;
6376;SDS011;3221;48.858;10.128;2022-11-18T13:58:21;2.17;;;1.97;;
6376;SDS011;3221;48.858;10.128;2022-11-18T14:00:57;2.77;;;2.00;;
6376;SDS011;3221;48.858;10.128;2022-11-18T14:03:37;3.23;;;2.40;;
6376;SDS011;3221;48.858;10.128;2022-11-18T14:06:09;3.70;;;2.77;;
6376;SDS011;3221;48.858;10.128;2022-11-18T14:08:37;3.17;;;2.67;;
6376;SDS011;3221;48.858;10.128;2022-11-18T14:11:05;3.60;;;2.93;;
6376;SDS011;3221;48.858;10.128;2022-11-18T14:13:36;5.20;;;3.67;;
6376;SDS011;3221;48.858;10.128;2022-11-18T14:18:46;6.20;;;4.40;;
6376;SDS011;3221;48.858;10.128;2022-11-18T14:21:14;6.17;;;4.17;;
6376;SDS011;3221;48.858;10.128;2022-11-18T14:23:56;5.67;;;4.10;;
6376;SDS011;3221;48.858;10.128;2022-11-18T14:26:33;6.40;;;4.47;;
6376;SDS011;3221;48.858;10.128;2022-11-18T14:29:13;7.60;;;5.20;;
6376;SDS011;3221;48.858;10.128;2022-11-18T14:34:58;9.43;;;6.40;;
6376;SDS011;3221;48.858;10.128;2022-11-18T14:37:25;7.13;;;4.53;;
6376;SDS011;3221;48.858;10.128;2022-11-18T14:39:54;4.97;;;3.40;;
6376;SDS011;3221;48.858;10.128;2022-11-18T14:42:21;5.00;;;3.33;;
6376;SDS011;3221;48.858;10.128;2022-11-18T14:44:49;4.03;;;2.80;;
6376;SDS011;3221;48.858;10.128;2022-11-18T14:49:50;2.70;;;2.13;;
6376;SDS011;3221;48.858;10.128;2022-11-18T14:52:17;2.17;;;1.97;;
6376;SDS011;3221;48.858;10.128;2022-11-18T14:54:44;3.77;;;1.97;;
6376;SDS011;3221;48.858;10.128;2022-11-18T14:57:15;3.43;;;2.27;;
6376;SDS011;3221;48.858;10.128;2022-11-18T14:59:42;2.40;;;1.80;;
6376;SDS011;3221;48.858;10.128;2022-11-18T15:02:16;2.57;;;2.00;;
6376;SDS011;3221;48.858;10.128;2022-11-18T15:04:47;4.40;;;2.00;;
6376;SDS011;3221;48.858;10.128;2022-11-18T15:07:16;2.63;;;2.10;;
6376;SDS011;3221;48.858;10.128;2022-11-18T15:09:49;2.80;;;2.10;;
6376;SDS011;3221;48.858;10.128;2022-11-18T15:12:16;3.10;;;2.07;;
6376;SDS011;3221;48.858;10.128;2022-11-18T15:14:43;2.63;;;2.03;;
6376;SDS011;3221;48.858;10.128;2022-11-18T15:17:10;2.57;;;1.90;;
6376;SDS011;3221;48.858;10.128;2022-11-18T15:19:38;2.93;;;1.90;;
6376;SDS011;3221;48.858;10.128;2022-11-18T15:22:07;3.27;;;2.07;;
6376;SDS011;3221;48.858;10.128;2022-11-18T15:24:34;3.60;;;2.13;;
6376;SDS011;3221;48.858;10.128;2022-11-18T15:27:01;5.33;;;2.03;;
6376;SDS011;3221;48.858;10.128;2022-11-18T15:29:30;2.50;;;2.30;;
6376;SDS011;3221;48.858;10.128;2022-11-18T15:31:58;2.53;;;2.17;;
6376;SDS011;3221;48.858;10.128;2022-11-18T15:34:25;2.70;;;2.13;;
6376;SDS011;3221;48.858;10.128;2022-11-18T15:36:52;3.40;;;2.30;;
6376;SDS011;3221;48.858;10.128;2022-11-18T15:39:19;2.90;;;2.20;;
6376;SDS011;3221;48.858;10.128;2022-11-18T15:41:46;2.43;;;2.20;;
6376;SDS011;3221;48.858;10.128;2022-11-18T15:44:14;3.57;;;2.40;;
6376;SDS011;3221;48.858;10.128;2022-11-18T15:46:42;2.83;;;2.27;;
6376;SDS011;3221;48.858;10.128;2022-11-18T15:49:13;5.03;;;2.30;;
6376;SDS011;3221;48.858;10.128;2022-11-18T15:51:40;3.90;;;2.30;;
6376;SDS011;3221;48.858;10.128;2022-11-18T15:54:07;2.83;;;1.90;;
6376;SDS011;3221;48.858;10.128;2022-11-18T15:56:34;3.87;;;2.37;;
6376;SDS011;3221;48.858;10.128;2022-11-18T15:59:03;2.10;;;1.90;;
6376;SDS011;3221;48.858;10.128;2022-11-18T16:01:32;3.07;;;2.17;;
6376;SDS011;3221;48.858;10.128;2022-11-18T16:04:01;3.20;;;2.23;;
6376;SDS011;3221;48.858;10.128;2022-11-18T16:06:29;4.20;;;3.07;;
6376;SDS011;3221;48.858;10.128;2022-11-18T16:08:56;5.67;;;3.37;;
6376;SDS011;3221;48.858;10.128;2022-11-18T16:11:26;5.33;;;4.03;;
6376;SDS011;3221;48.858;10.128;2022-11-18T16:14:14;6.23;;;3.67;;
6376;SDS011;3221;48.858;10.128;2022-11-18T16:16:43;5.80;;;3.80;;
6376;SDS011;3221;48.858;10.128;2022-11-18T16:19:13;4.93;;;3.57;;
6376;SDS011;3221;48.858;10.128;2022-11-18T16:21:43;6.07;;;3.63;;
6376;SDS011;3221;48.858;10.128;2022-11-18T16:24:16;9.90;;;4.33;;
6376;SDS011;3221;48.858;10.128;2022-11-18T16:26:48;10.27;;;4.70;;
6376;SDS011;3221;48.858;10.128;2022-11-18T16:29:16;7.57;;;4.90;;
6376;SDS011;3221;48.858;10.128;2022-11-18T16:31:45;8.13;;;5.13;;
6376;SDS011;3221;48.858;10.128;2022-11-18T16:34:20;7.77;;;4.57;;
6376;SDS011;3221;48.858;10.128;2022-11-18T16:36:50;7.60;;;3.90;;
6376;SDS011;3221;48.858;10.128;2022-11-18T16:39:19;5.67;;;3.77;;
6376;SDS011;3221;48.858;10.128;2022-11-18T16:41:53;4.90;;;3.37;;
6376;SDS011;3221;48.858;10.128;2022-11-18T16:44:27;3.63;;;3.00;;
6376;SDS011;3221;48.858;10.128;2022-11-18T16:46:55;4.43;;;2.90;;
6376;SDS011;3221;48.858;10.128;2022-11-18T16:49:23;4.50;;;2.90;;
6376;SDS011;3221;48.858;10.128;2022-11-18T16:51:52;3.37;;;2.80;;
6376;SDS011;3221;48.858;10.128;2022-11-18T16:54:24;5.17;;;3.17;;
6376;SDS011;3221;48.858;10.128;2022-11-18T16:56:52;5.00;;;3.30;;
6376;SDS011;3221;48.858;10.128;2022-11-18T16:59:24;4.37;;;3.20;;
6376;SDS011;3221;48.858;10.128;2022-11-18T17:01:53;6.23;;;3.43;;
6376;SDS011;3221;48.858;10.128;2022-11-18T17:04:22;3.87;;;3.20;;
6376;SDS011;3221;48.858;10.128;2022-11-18T17:06:50;3.57;;;2.60;;
6376;SDS011;3221;48.858;10.128;2022-11-18T17:09:18;3.07;;;2.77;;
6376;SDS011;3221;48.858;10.128;2022-11-18T17:11:47;4.63;;;2.80;;
6376;SDS011;3221;48.858;10.128;2022-11-18T17:14:14;3.03;;;2.60;;
6376;SDS011;3221;48.858;10.128;2022-11-18T17:16:41;3.77;;;2.90;;
6376;SDS011;3221;48.858;10.128;2022-11-18T17:19:10;3.10;;;2.80;;
6376;SDS011;3221;48.858;10.128;2022-11-18T17:21:39;3.87;;;2.70;;
6376;SDS011;3221;48.858;10.128;2022-11-18T17:24:07;4.63;;;2.80;;
6376;SDS011;3221;48.858;10.128;2022-11-18T17:26:34;3.90;;;2.70;;